createdAt,value
2019-01-30T00:00:41.763Z,-1.10
2019-01-30T00:03:12.812Z,-1.30
2019-01-30T00:05:43.852Z,-1.20
2019-01-30T00:08:13.843Z,-1.10
2019-01-30T00:10:45.289Z,-1.20
2019-01-30T00:13:15.282Z,-1.10
2019-01-30T00:15:56.236Z,-1.20
2019-01-30T00:18:18.401Z,-1.20
2019-01-30T00:20:48.402Z,-1.20
2019-01-30T00:23:20.211Z,-1.20
2019-01-30T00:25:50.210Z,-1.30
2019-01-30T00:28:21.331Z,-1.40
2019-01-30T00:30:51.284Z,-1.40
2019-01-30T00:33:21.247Z,-1.60
2019-01-30T00:35:52.365Z,-1.80
2019-01-30T00:38:23.482Z,-1.60
2019-01-30T00:40:54.522Z,-1.50
2019-01-30T00:43:24.484Z,-1.50
2019-01-30T00:45:55.612Z,-1.40
2019-01-30T00:48:25.522Z,-1.30
2019-01-30T00:50:58.762Z,-1.50
2019-01-30T00:53:32.122Z,-1.50
2019-01-30T00:56:02.122Z,-1.40
2019-01-30T00:58:33.010Z,-1.40
2019-01-30T01:01:04.165Z,-1.30
2019-01-30T01:03:35.368Z,-1.30
2019-01-30T01:06:06.453Z,-1.30
2019-01-30T01:08:37.644Z,-1.30
2019-01-30T01:11:08.784Z,-1.30
2019-01-30T01:13:40.004Z,-1.30
2019-01-30T01:16:11.054Z,-1.40
2019-01-30T01:18:42.205Z,-1.30
2019-01-30T01:21:13.244Z,-1.30
2019-01-30T01:23:44.290Z,-1.30
2019-01-30T01:26:15.370Z,-1.40
2019-01-30T01:28:46.493Z,-1.30
2019-01-30T01:31:17.210Z,-1.50
2019-01-30T01:33:48.284Z,-1.40
2019-01-30T01:36:19.522Z,-1.30
2019-01-30T01:38:52.848Z,-1.40
2019-01-30T01:41:23.850Z,-1.60
2019-01-30T01:43:53.202Z,-1.80
2019-01-30T01:46:24.210Z,-2.10
2019-01-30T01:48:55.330Z,-2.30
2019-01-30T01:51:26.442Z,-2.30
2019-01-30T01:53:57.574Z,-2.30
2019-01-30T01:56:28.610Z,-2.20
2019-01-30T01:59:00.323Z,-1.90
2019-01-30T02:01:31.401Z,-1.70
2019-01-30T02:04:02.411Z,-1.60
2019-01-30T02:06:32.963Z,-1.60
2019-01-30T02:09:03.933Z,-1.50
2019-01-30T02:11:34.963Z,-1.50
2019-01-30T02:14:06.042Z,-1.50
2019-01-30T02:16:37.090Z,-1.40
2019-01-30T02:19:08.130Z,-1.40
2019-01-30T02:21:39.171Z,-1.40
2019-01-30T02:24:10.252Z,-1.40
2019-01-30T02:26:41.332Z,-1.40
2019-01-30T02:29:11.283Z,-1.60
2019-01-30T02:31:41.977Z,-1.60
2019-01-30T02:34:13.243Z,-1.90
2019-01-30T02:36:59.535Z,-2.00
2019-01-30T02:39:29.525Z,-1.70
2019-01-30T02:42:00.642Z,-1.50
2019-01-30T02:44:31.690Z,-1.40
2019-01-30T02:47:02.811Z,-1.40
2019-01-30T02:49:32.816Z,-1.40
2019-01-30T02:52:03.931Z,-1.40
2019-01-30T02:54:35.082Z,-1.50
2019-01-30T02:57:08.445Z,-1.40
2019-01-30T02:59:39.562Z,-1.80
2019-01-30T03:02:14.803Z,-2.10
2019-01-30T03:04:45.771Z,-2.10
2019-01-30T03:07:16.883Z,-1.90
2019-01-30T03:09:47.930Z,-1.90
2019-01-30T03:12:19.251Z,-2.00
2019-01-30T03:14:50.370Z,-2.10
2019-01-30T03:17:19.714Z,-1.90
2019-01-30T03:19:49.650Z,-1.60
2019-01-30T03:22:20.803Z,-1.60
2019-01-30T03:24:52.479Z,-1.60
2019-01-30T03:27:23.530Z,-1.60
2019-01-30T03:29:53.854Z,-1.80
2019-01-30T03:32:27.256Z,-1.80
2019-01-30T03:34:59.762Z,-1.90
2019-01-30T03:37:30.750Z,-1.80
2019-01-30T03:40:00.681Z,-1.80
2019-01-30T03:42:31.696Z,-1.70
2019-01-30T03:45:02.751Z,-1.70
2019-01-30T03:47:34.371Z,-2.00
2019-01-30T03:50:05.442Z,-2.10
2019-01-30T03:52:35.362Z,-2.10
2019-01-30T03:55:06.764Z,-2.10
2019-01-30T03:57:37.850Z,-2.00
2019-01-30T04:00:12.091Z,-2.00
2019-01-30T04:02:43.163Z,-2.10
2019-01-30T04:05:14.282Z,-2.00
2019-01-30T04:07:44.283Z,-2.00
2019-01-30T04:10:17.884Z,-2.10
2019-01-30T04:12:51.173Z,-2.10
2019-01-30T04:15:21.162Z,-1.90
2019-01-30T04:17:51.164Z,-2.00
2019-01-30T04:20:21.733Z,-2.00
2019-01-30T04:22:52.810Z,-2.00
2019-01-30T04:25:24.009Z,-2.00
2019-01-30T04:27:55.050Z,-2.00
2019-01-30T04:30:26.484Z,-2.10
2019-01-30T04:32:57.523Z,-2.10
2019-01-30T04:35:28.651Z,-2.10
2019-01-30T04:37:58.650Z,-2.00
2019-01-30T04:40:29.723Z,-2.20
2019-01-30T04:43:00.770Z,-2.10
2019-01-30T04:45:30.762Z,-2.20
2019-01-30T04:48:01.691Z,-2.10
2019-01-30T04:50:33.210Z,-2.00
2019-01-30T04:53:04.210Z,-1.90
2019-01-30T04:55:34.201Z,-2.00
2019-01-30T04:58:04.122Z,-1.90
2019-01-30T05:00:35.163Z,-1.90
2019-01-30T05:03:05.051Z,-2.00
2019-01-30T05:05:36.052Z,-1.90
2019-01-30T05:08:07.122Z,-2.00
2019-01-30T05:10:36.923Z,-2.00
2019-01-30T05:13:08.053Z,-2.00
2019-01-30T05:15:39.130Z,-2.10
2019-01-30T05:18:10.211Z,-2.10
2019-01-30T05:20:41.291Z,-2.10
2019-01-30T05:23:12.900Z,-2.10
2019-01-30T05:25:44.010Z,-2.00
2019-01-30T05:28:15.195Z,-1.90
2019-01-30T05:30:46.262Z,-1.90
2019-01-30T05:33:16.251Z,-1.90
2019-01-30T05:35:47.291Z,-1.90
2019-01-30T05:38:16.633Z,-1.90
2019-01-30T05:40:47.645Z,-2.00
2019-01-30T05:43:21.124Z,-1.90
2019-01-30T05:45:52.130Z,-1.90
2019-01-30T05:48:23.203Z,-1.70
2019-01-30T05:50:53.203Z,-1.80
2019-01-30T05:53:22.475Z,-1.80
2019-01-30T05:55:53.524Z,-2.00
2019-01-30T05:58:24.611Z,-1.90
2019-01-30T06:00:57.933Z,-2.00
2019-01-30T06:03:27.923Z,-2.00
2019-01-30T06:05:58.923Z,-2.10
2019-01-30T06:08:28.722Z,-2.20
2019-01-30T06:10:59.843Z,-2.10
2019-01-30T06:13:31.523Z,-2.10
2019-01-30T06:16:02.682Z,-2.10
2019-01-30T06:18:32.682Z,-2.10
2019-01-30T06:21:03.923Z,-2.00
2019-01-30T06:23:35.107Z,-2.10
2019-01-30T06:26:06.217Z,-1.90
2019-01-30T06:28:36.137Z,-2.10
2019-01-30T06:31:07.330Z,-2.00
2019-01-30T06:33:37.304Z,-1.90
2019-01-30T06:36:11.207Z,-2.10
2019-01-30T06:38:42.285Z,-2.00
2019-01-30T06:41:13.883Z,-1.90
2019-01-30T06:43:44.483Z,-1.70
2019-01-30T06:46:15.683Z,-1.90
2019-01-30T06:48:45.682Z,-2.10
2019-01-30T06:51:15.562Z,-2.20
2019-01-30T06:53:46.691Z,-2.20
2019-01-30T06:56:17.764Z,-2.10
2019-01-30T06:58:48.845Z,-2.10
2019-01-30T07:01:19.962Z,-2.20
2019-01-30T07:03:51.051Z,-2.10
2019-01-30T07:06:22.083Z,-2.20
2019-01-30T07:08:54.522Z,-2.10
2019-01-30T07:11:25.610Z,-2.10
2019-01-30T07:13:58.251Z,-2.00
2019-01-30T07:16:30.535Z,-1.90
2019-01-30T07:25:12.451Z,-1.90
2019-01-30T07:27:43.809Z,-1.80
2019-01-30T07:30:18.001Z,-1.70
2019-01-30T07:32:49.049Z,-1.70
2019-01-30T07:35:20.301Z,-1.60
2019-01-30T07:37:51.923Z,-1.70
2019-01-30T07:40:22.893Z,-1.80
2019-01-30T07:42:53.882Z,-1.60
2019-01-30T07:45:26.121Z,-1.60
2019-01-30T07:47:57.164Z,-1.60
2019-01-30T07:50:28.203Z,-1.60
2019-01-30T07:52:59.282Z,-1.60
2019-01-30T07:55:30.213Z,-1.60
2019-01-30T07:58:01.283Z,-1.60
2019-01-30T08:00:33.170Z,-1.60
2019-01-30T08:03:04.195Z,-1.60
2019-01-30T08:05:36.360Z,-1.60
2019-01-30T08:08:06.366Z,-1.60
2019-01-30T08:10:37.440Z,-1.50
2019-01-30T08:13:08.362Z,-1.40
2019-01-30T08:15:39.342Z,-1.40
2019-01-30T08:18:09.155Z,-1.40
2019-01-30T08:20:40.184Z,-1.40
2019-01-30T08:23:10.392Z,-1.20
2019-01-30T08:25:41.874Z,-1.20
2019-01-30T08:28:15.626Z,-1.10
2019-01-30T08:30:45.910Z,-1.10
2019-01-30T08:33:16.497Z,-1.20
2019-01-30T08:35:46.390Z,-1.20
2019-01-30T08:38:17.289Z,-1.20
2019-01-30T08:40:48.275Z,-1.20
2019-01-30T08:43:19.878Z,-1.30
2019-01-30T08:45:50.883Z,-1.20
2019-01-30T08:48:21.921Z,-1.20
2019-01-30T08:50:52.922Z,-1.20
2019-01-30T08:53:23.923Z,-1.20
2019-01-30T08:55:54.994Z,-1.10
2019-01-30T08:58:25.964Z,-1.10
2019-01-30T09:00:56.903Z,-1.10
2019-01-30T09:03:27.922Z,-1.10
2019-01-30T09:05:57.765Z,-1.00
2019-01-30T09:08:27.638Z,-1.00
2019-01-30T09:10:58.600Z,-1.00
2019-01-30T09:13:29.642Z,-1.00
2019-01-30T09:16:00.684Z,-0.90
2019-01-30T09:18:33.087Z,-0.90
2019-01-30T09:21:04.047Z,-0.80
2019-01-30T09:23:35.040Z,-0.70
2019-01-30T09:26:06.035Z,-0.60
2019-01-30T09:28:37.043Z,-0.60
2019-01-30T09:31:08.726Z,-0.50
2019-01-30T09:33:39.751Z,-0.50
2019-01-30T09:36:09.742Z,-0.50
2019-01-30T09:38:40.722Z,-0.60
2019-01-30T09:41:10.527Z,-0.60
2019-01-30T09:43:40.391Z,-0.60
2019-01-30T09:46:11.483Z,-0.50
2019-01-30T09:48:42.522Z,-0.50
2019-01-30T09:51:13.523Z,-0.50
2019-01-30T09:53:44.535Z,-0.50
2019-01-30T09:56:22.223Z,-0.50
2019-01-30T09:58:53.280Z,-0.50
2019-01-30T10:01:24.241Z,-0.40
2019-01-30T10:03:55.239Z,-0.40
2019-01-30T10:06:26.171Z,-0.40
2019-01-30T10:08:58.042Z,-0.40
2019-01-30T10:11:29.113Z,-0.40
2019-01-30T10:13:58.964Z,-0.40
2019-01-30T10:16:29.959Z,-0.40
2019-01-30T10:19:00.971Z,-0.30
2019-01-30T10:21:33.318Z,-0.30
2019-01-30T10:24:04.302Z,-0.30
2019-01-30T10:26:35.239Z,-0.30
2019-01-30T10:29:06.216Z,-0.30
2019-01-30T10:31:37.191Z,-0.20
2019-01-30T10:34:08.892Z,-0.20
2019-01-30T10:36:39.880Z,-0.20
2019-01-30T10:39:11.752Z,-0.20
2019-01-30T10:41:42.726Z,-0.20
2019-01-30T10:44:13.754Z,-0.20
2019-01-30T10:46:44.623Z,-0.20
2019-01-30T10:49:14.471Z,-0.20
2019-01-30T10:51:45.470Z,-0.20
2019-01-30T10:54:16.492Z,-0.20
2019-01-30T10:56:47.511Z,-0.20
2019-01-30T10:59:18.470Z,-0.20
2019-01-30T11:01:50.072Z,-0.20
2019-01-30T11:04:21.681Z,-0.20
2019-01-30T11:06:52.621Z,-0.20
2019-01-30T11:09:23.603Z,-0.20
2019-01-30T11:11:55.191Z,-0.20
2019-01-30T11:14:26.235Z,-0.20
2019-01-30T11:16:56.152Z,-0.20
2019-01-30T11:19:27.143Z,-0.20
2019-01-30T11:21:58.111Z,-0.20
2019-01-30T11:24:29.118Z,-0.20
2019-01-30T11:27:00.071Z,-0.10
2019-01-30T11:29:32.546Z,-0.10
2019-01-30T11:32:03.550Z,-0.10
2019-01-30T11:34:34.438Z,0.00
2019-01-30T11:37:06.259Z,0.00
2019-01-30T11:39:37.311Z,0.00
2019-01-30T11:42:08.380Z,-0.10
2019-01-30T11:44:39.518Z,-0.10
2019-01-30T11:47:10.557Z,-0.10
2019-01-30T11:49:41.606Z,-0.10
2019-01-30T11:52:12.622Z,-0.10
2019-01-30T11:54:43.691Z,-0.10
2019-01-30T11:57:14.707Z,-0.10
2019-01-30T11:59:44.656Z,-0.10
2019-01-30T12:02:15.678Z,-0.10
2019-01-30T12:04:46.630Z,-0.10
2019-01-30T12:07:19.039Z,-0.10
2019-01-30T12:09:50.158Z,-0.10
2019-01-30T12:12:21.158Z,-0.10
2019-01-30T12:14:52.162Z,-0.10
2019-01-30T12:17:23.879Z,-0.10
2019-01-30T12:19:54.819Z,-0.10
2019-01-30T12:22:25.757Z,0.00
2019-01-30T12:24:56.711Z,0.00
2019-01-30T12:27:27.674Z,-0.10
2019-01-30T12:29:57.517Z,0.00
2019-01-30T12:32:28.499Z,0.00
2019-01-30T12:34:58.491Z,0.00
2019-01-30T12:37:29.383Z,-0.10
2019-01-30T12:40:00.363Z,-0.10
2019-01-30T12:42:31.343Z,-0.10
2019-01-30T12:45:02.330Z,0.00
2019-01-30T12:47:33.261Z,0.00
2019-01-30T12:50:03.179Z,-0.10
2019-01-30T12:52:40.910Z,-0.10
2019-01-30T12:55:13.703Z,-0.10
2019-01-30T12:57:44.705Z,-0.10
2019-01-30T13:00:21.161Z,-0.10
2019-01-30T13:02:52.881Z,-0.10
2019-01-30T13:05:25.008Z,-0.10
2019-01-30T13:07:56.110Z,-0.20
2019-01-30T13:10:27.161Z,-0.20
2019-01-30T13:12:58.343Z,-0.20
2019-01-30T13:15:31.462Z,-0.20
2019-01-30T13:18:01.543Z,-0.20
2019-01-30T13:20:32.585Z,-0.20
2019-01-30T13:23:02.511Z,-0.20
2019-01-30T13:25:34.310Z,-0.20
2019-01-30T13:28:05.422Z,-0.30
2019-01-30T13:30:38.223Z,-0.20
2019-01-30T13:33:09.943Z,-0.20
2019-01-30T13:35:40.970Z,-0.20
2019-01-30T13:38:12.102Z,-0.20
2019-01-30T13:40:43.150Z,-0.20
2019-01-30T13:43:14.302Z,-0.20
2019-01-30T13:45:45.384Z,-0.20
2019-01-30T13:48:18.885Z,-0.20
2019-01-30T13:50:58.673Z,-0.20
2019-01-30T13:53:30.881Z,-0.30
2019-01-30T13:56:01.952Z,-0.30
2019-01-30T13:58:33.030Z,-0.30
2019-01-30T14:01:03.024Z,-0.30
2019-01-30T14:03:32.942Z,-0.30
2019-01-30T14:06:04.010Z,-0.30
2019-01-30T14:08:35.121Z,-0.30
2019-01-30T14:11:06.279Z,-0.30
2019-01-30T14:13:37.316Z,-0.30
2019-01-30T14:16:08.389Z,-0.30
2019-01-30T14:18:38.626Z,-0.30
2019-01-30T14:21:09.671Z,-0.30
2019-01-30T14:23:39.732Z,-0.30
2019-01-30T14:26:10.785Z,-0.30
2019-01-30T14:28:41.880Z,-0.30
2019-01-30T14:31:13.126Z,-0.30
2019-01-30T14:33:44.934Z,-0.30
2019-01-30T14:36:17.582Z,-0.30
2019-01-30T14:38:48.793Z,-0.30
2019-01-30T14:41:19.897Z,-0.30
2019-01-30T14:43:49.907Z,-0.30
2019-01-30T14:46:19.838Z,-0.40
2019-01-30T14:48:50.951Z,-0.40
2019-01-30T14:51:22.040Z,-0.40
2019-01-30T14:53:54.824Z,-0.40
2019-01-30T14:56:25.834Z,-0.40
2019-01-30T14:58:56.997Z,-0.40
2019-01-30T15:01:28.269Z,-0.40
2019-01-30T15:04:01.030Z,-0.40
2019-01-30T15:06:32.805Z,-0.40
2019-01-30T15:09:06.658Z,-0.50
2019-01-30T15:11:39.651Z,-0.50
2019-01-30T15:14:10.742Z,-0.50
2019-01-30T15:16:41.836Z,-0.50
2019-01-30T15:19:12.916Z,-0.50
2019-01-30T15:21:44.024Z,-0.50
2019-01-30T15:24:15.036Z,-0.50
2019-01-30T15:26:46.177Z,-0.50
2019-01-30T15:29:17.232Z,-0.50
2019-01-30T15:31:48.327Z,-0.50
2019-01-30T15:34:18.344Z,-0.50
2019-01-30T15:36:48.455Z,-0.50
2019-01-30T15:39:19.594Z,-0.50
2019-01-30T15:41:51.414Z,-0.50
2019-01-30T15:44:21.352Z,-0.50
2019-01-30T15:46:52.391Z,-0.50
2019-01-30T15:49:23.583Z,-0.50
2019-01-30T15:51:53.537Z,-0.50
2019-01-30T15:54:25.346Z,-0.50
2019-01-30T15:57:16.469Z,-0.50
2019-01-30T15:59:49.870Z,-0.50
2019-01-30T16:02:23.424Z,-0.50
2019-01-30T16:04:54.667Z,-0.50
2019-01-30T16:07:30.014Z,-0.50
2019-01-30T16:11:01.227Z,-0.50
2019-01-30T16:13:32.867Z,-0.50
2019-01-30T16:16:05.583Z,-0.50
2019-01-30T16:18:36.865Z,-0.50
2019-01-30T16:21:06.863Z,-0.60
2019-01-30T16:23:37.983Z,-0.50
2019-01-30T16:26:07.876Z,-0.60
2019-01-30T16:28:39.150Z,-0.60
2019-01-30T16:31:10.820Z,-0.50
2019-01-30T16:33:43.904Z,-0.60
2019-01-30T16:36:15.152Z,-0.60
2019-01-30T16:38:44.725Z,-0.60
2019-01-30T16:41:16.083Z,-0.60
2019-01-30T16:43:49.663Z,-0.60
2019-01-30T16:46:20.950Z,-0.60
2019-01-30T16:48:53.605Z,-0.60
2019-01-30T16:51:23.685Z,-0.50
2019-01-30T16:53:57.840Z,-0.50
2019-01-30T16:56:28.912Z,-0.50
2019-01-30T16:59:00.000Z,-0.50
2019-01-30T17:01:31.315Z,-0.50
2019-01-30T17:04:02.591Z,-0.50
2019-01-30T17:06:33.851Z,-0.50
2019-01-30T17:09:08.143Z,-0.50
2019-01-30T17:11:38.942Z,-0.60
2019-01-30T17:14:10.024Z,-0.50
2019-01-30T17:16:41.269Z,-0.60
2019-01-30T17:19:11.385Z,-0.60
2019-01-30T17:21:41.514Z,-0.60
2019-01-30T17:24:16.804Z,-0.60
2019-01-30T17:26:47.760Z,-0.60
2019-01-30T17:29:18.983Z,-0.60
2019-01-30T17:31:50.849Z,-0.60
2019-01-30T17:34:23.233Z,-0.60
2019-01-30T17:36:53.399Z,-0.60
2019-01-30T17:39:24.576Z,-0.60
2019-01-30T17:41:57.135Z,-0.60
2019-01-30T17:44:28.393Z,-0.60
2019-01-30T17:47:01.078Z,-0.60
2019-01-30T17:49:32.193Z,-0.60
2019-01-30T17:52:04.681Z,-0.60
2019-01-30T17:54:35.746Z,-0.60
2019-01-30T17:57:06.922Z,-0.60
2019-01-30T17:59:38.234Z,-0.60
2019-01-30T18:02:11.030Z,-0.60
2019-01-30T18:04:41.842Z,-0.60
2019-01-30T18:07:13.606Z,-0.60
2019-01-30T18:09:43.651Z,-0.60
2019-01-30T18:12:15.511Z,-0.60
2019-01-30T18:14:46.982Z,-0.60
2019-01-30T18:17:27.040Z,-0.60
2019-01-30T18:19:50.929Z,-0.60
2019-01-30T18:22:21.267Z,-0.60
2019-01-30T18:24:52.515Z,-0.60
2019-01-30T18:27:22.671Z,-0.60
2019-01-30T18:29:52.961Z,-0.60
2019-01-30T18:32:26.842Z,-0.60
2019-01-30T18:34:58.383Z,-0.60
2019-01-30T18:37:28.519Z,-0.60
2019-01-30T18:39:58.622Z,-0.60
2019-01-30T18:42:28.552Z,-0.60
2019-01-30T18:44:58.243Z,-0.60
2019-01-30T18:47:29.994Z,-0.50
2019-01-30T18:50:00.035Z,-0.50
2019-01-30T18:52:31.830Z,-0.50
2019-01-30T18:55:03.310Z,-0.50
2019-01-30T18:57:34.589Z,-0.50
2019-01-30T19:00:06.600Z,-0.50
2019-01-30T19:02:36.770Z,-0.50
2019-01-30T19:05:09.771Z,-0.50
2019-01-30T19:07:41.014Z,-0.50
2019-01-30T19:10:24.558Z,-0.50
2019-01-30T19:12:57.401Z,-0.50
2019-01-30T19:15:29.968Z,-0.50
2019-01-30T19:18:00.254Z,-0.50
2019-01-30T19:20:33.326Z,-0.50
2019-01-30T19:23:06.919Z,-0.50
2019-01-30T19:25:37.438Z,-0.50
2019-01-30T19:28:09.101Z,-0.60
2019-01-30T19:30:40.359Z,-0.60
2019-01-30T19:33:11.079Z,-0.60
2019-01-30T19:35:43.614Z,-0.60
2019-01-30T19:38:14.808Z,-0.60
2019-01-30T19:40:47.092Z,-0.60
2019-01-30T19:43:18.367Z,-0.60
2019-01-30T19:45:49.668Z,-0.60
2019-01-30T19:48:23.201Z,-0.60
2019-01-30T19:50:54.642Z,-0.60
2019-01-30T19:53:26.129Z,-0.60
2019-01-30T19:55:57.079Z,-0.60
2019-01-30T19:58:30.602Z,-0.60
2019-01-30T20:01:03.279Z,-0.60
2019-01-30T20:03:34.528Z,-0.60
2019-01-30T20:06:04.678Z,-0.60
2019-01-30T20:08:37.437Z,-0.60
2019-01-30T20:11:08.741Z,-0.60
2019-01-30T20:13:42.093Z,-0.60
2019-01-30T20:16:15.731Z,-0.60
2019-01-30T20:18:46.562Z,-0.60
2019-01-30T20:21:17.881Z,-0.60
2019-01-30T20:23:51.846Z,-0.60
2019-01-30T20:26:23.648Z,-0.60
2019-01-30T20:28:53.808Z,-0.60
2019-01-30T20:31:26.705Z,-0.60
2019-01-30T20:33:58.098Z,-0.60
2019-01-30T20:36:28.385Z,-0.60
2019-01-30T20:38:58.498Z,-0.60
2019-01-30T20:41:35.169Z,-0.60
2019-01-30T20:44:07.813Z,-0.60
2019-01-30T20:46:39.033Z,-0.60
2019-01-30T20:49:10.426Z,-0.70
2019-01-30T20:51:42.032Z,-0.70
2019-01-30T20:54:13.383Z,-0.70
2019-01-30T20:56:43.574Z,-0.70
2019-01-30T20:59:14.788Z,-0.70
2019-01-30T21:01:46.086Z,-0.70
2019-01-30T21:04:17.952Z,-0.70
2019-01-30T21:06:49.302Z,-0.70
2019-01-30T21:09:21.302Z,-0.70
2019-01-30T21:11:54.465Z,-0.70
2019-01-30T21:14:24.827Z,-0.70
2019-01-30T21:16:54.951Z,-0.80
2019-01-30T21:19:26.313Z,-0.80
2019-01-30T21:22:00.152Z,-0.80
2019-01-30T21:24:31.544Z,-0.80
2019-01-30T21:27:02.914Z,-0.80
2019-01-30T21:29:34.265Z,-0.80
2019-01-30T21:32:04.665Z,-0.80
2019-01-30T21:34:36.142Z,-0.80
2019-01-30T21:37:07.361Z,-0.80
2019-01-30T21:39:37.387Z,-0.80
2019-01-30T21:42:08.459Z,-0.80
2019-01-30T21:44:39.503Z,-0.80
2019-01-30T21:47:12.182Z,-0.80
2019-01-30T21:49:45.686Z,-0.80
2019-01-30T21:52:16.988Z,-0.80
2019-01-30T21:54:47.023Z,-0.80
2019-01-30T21:57:18.106Z,-0.80
2019-01-30T21:59:49.182Z,-0.70
2019-01-30T22:02:20.323Z,-0.70
2019-01-30T22:04:55.221Z,-0.70
2019-01-30T22:07:26.302Z,-0.70
2019-01-30T22:09:57.943Z,-0.70
2019-01-30T22:12:31.061Z,-0.80
2019-01-30T22:15:02.125Z,-0.70
2019-01-30T22:17:32.026Z,-0.80
2019-01-30T22:20:03.048Z,-0.70
2019-01-30T22:22:34.103Z,-0.70
2019-01-30T22:25:05.182Z,-0.70
2019-01-30T22:27:37.783Z,-0.70
2019-01-30T22:30:13.890Z,-0.70
2019-01-30T22:32:44.673Z,-0.70
2019-01-30T22:35:16.445Z,-0.70
2019-01-30T22:37:46.370Z,-0.70
2019-01-30T22:40:22.354Z,-0.70
2019-01-30T22:42:51.306Z,-0.70
2019-01-30T22:45:23.464Z,-0.80
2019-01-30T22:47:54.592Z,-0.80
2019-01-30T22:50:27.108Z,-0.80
2019-01-30T22:52:57.223Z,-0.80
2019-01-30T22:55:28.271Z,-0.70
2019-01-30T22:57:59.472Z,-0.70
2019-01-30T23:01:04.023Z,-0.80
2019-01-30T23:03:41.075Z,-0.80
2019-01-30T23:06:42.263Z,-0.80
2019-01-30T23:09:36.071Z,-0.80
2019-01-30T23:12:28.290Z,-0.80
2019-01-30T23:15:04.202Z,-0.80
2019-01-30T23:17:57.326Z,-0.80
2019-01-30T23:20:27.218Z,-0.80
2019-01-30T23:23:13.127Z,-0.80
2019-01-30T23:25:53.291Z,-0.80
2019-01-30T23:29:02.949Z,-0.80
2019-01-30T23:31:57.023Z,-0.80
2019-01-30T23:34:37.021Z,-0.80
2019-01-30T23:37:23.047Z,-0.80
2019-01-30T23:40:09.060Z,-0.80
2019-01-30T23:43:02.466Z,-0.80
2019-01-30T23:45:35.498Z,-0.80
2019-01-30T23:48:15.526Z,-0.80
2019-01-30T23:50:55.690Z,-0.70
2019-01-30T23:53:40.622Z,-0.60
2019-01-30T23:56:17.886Z,-0.70
2019-01-30T23:59:10.047Z,-0.70
